Time;durP1;ratioP1;P1;durP2;ratioP2;P2;SDS_P1;SDS_P2;PMS_P1;PMS_P2;Temp;Humidity;BMP_temperature;BMP_pressure;BME280_temperature;BME280_humidity;BME280_pressure;Samples;Min_cycle;Max_cycle;Signal;HPM_P1;HPM_P2
2022/07/02 00:00:02;;;;;;;15.13;5.30;;;18.40;57.20;;;;;;5039770;28;20279;-91
2022/07/02 00:02:33;;;;;;;11.73;3.77;;;18.40;57.30;;;;;;5038080;28;20198;-91
2022/07/02 00:05:03;;;;;;;11.57;3.27;;;18.30;57.20;;;;;;5040239;28;20225;-93
2022/07/02 00:07:31;;;;;;;7.93;3.23;;;18.30;57.20;;;;;;5047774;28;20209;-92
2022/07/02 00:10:00;;;;;;;13.90;4.73;;;18.30;57.20;;;;;;5045383;28;20255;-92
2022/07/02 00:12:29;;;;;;;9.87;3.70;;;18.30;57.40;;;;;;5045975;28;20211;-91
2022/07/02 00:15:00;;;;;;;13.60;4.27;;;18.30;57.30;;;;;;5042096;28;20205;-91
2022/07/02 00:17:30;;;;;;;11.93;4.37;;;18.20;57.50;;;;;;5045300;28;20256;-91
2022/07/02 00:19:58;;;;;;;12.13;3.90;;;18.20;57.30;;;;;;5048465;28;20208;-92
2022/07/02 00:22:29;;;;;;;17.10;5.83;;;18.20;57.40;;;;;;5046164;28;20260;-92
2022/07/02 00:24:56;;;;;;;17.83;6.00;;;18.10;57.70;;;;;;5046070;28;20228;-91
2022/07/02 00:27:27;;;;;;;12.97;3.60;;;18.00;57.50;;;;;;5046913;28;20239;-93
2022/07/02 00:29:59;;;;;;;11.00;3.33;;;18.00;57.70;;;;;;5049837;28;20209;-91
2022/07/02 00:32:30;;;;;;;15.17;4.93;;;18.00;58.00;;;;;;5041921;28;20221;-90
2022/07/02 00:34:58;;;;;;;9.63;3.67;;;18.00;57.90;;;;;;5048078;28;20207;-92
2022/07/02 00:37:26;;;;;;;7.47;2.90;;;17.90;57.90;;;;;;5044664;28;20225;-92
2022/07/02 00:39:54;;;;;;;11.20;4.03;;;17.90;58.70;;;;;;5034114;28;20213;-90
2022/07/02 00:42:24;;;;;;;6.73;2.63;;;17.80;58.00;;;;;;5038253;28;20889;-92
2022/07/02 00:44:53;;;;;;;18.77;5.93;;;17.80;58.20;;;;;;5035276;28;20213;-92
2022/07/02 00:47:25;;;;;;;8.50;2.90;;;17.80;58.30;;;;;;5046162;28;20664;-92
2022/07/02 00:49:52;;;;;;;6.90;2.83;;;17.80;58.30;;;;;;5047913;28;20237;-92
2022/07/02 00:52:21;;;;;;;10.90;4.07;;;17.70;58.10;;;;;;5035969;28;20314;-93
2022/07/02 00:54:48;;;;;;;12.90;4.43;;;17.80;58.40;;;;;;5046563;28;20246;-91
2022/07/02 00:57:15;;;;;;;8.63;3.33;;;17.70;58.50;;;;;;5046905;28;20289;-90
2022/07/02 00:59:44;;;;;;;16.57;5.40;;;17.70;58.90;;;;;;5044790;28;20214;-92
2022/07/02 01:02:11;;;;;;;10.03;3.77;;;17.60;58.70;;;;;;5048041;28;20706;-91
2022/07/02 01:04:41;;;;;;;8.43;3.27;;;17.60;58.60;;;;;;5044677;28;20196;-91
2022/07/02 01:07:12;;;;;;;16.63;5.73;;;17.60;58.80;;;;;;5044361;28;20265;-91
2022/07/02 01:12:28;;;;;;;9.07;3.40;;;17.60;58.90;;;;;;5049286;28;20208;-93
2022/07/02 01:14:58;;;;;;;10.70;3.93;;;17.60;58.90;;;;;;5048546;28;20202;-91
2022/07/02 01:17:26;;;;;;;9.67;3.40;;;17.50;59.10;;;;;;5047874;28;20301;-91
2022/07/02 01:19:54;;;;;;;8.70;3.40;;;17.50;59.10;;;;;;5043557;28;20200;-92
2022/07/02 01:22:24;;;;;;;9.37;3.27;;;17.50;59.30;;;;;;5048021;28;20216;-93
2022/07/02 01:24:53;;;;;;;13.03;4.70;;;17.40;59.50;;;;;;5047044;28;20229;-93
2022/07/02 01:27:23;;;;;;;11.83;4.20;;;17.40;59.50;;;;;;5049293;28;20237;-91
2022/07/02 01:29:53;;;;;;;15.13;5.53;;;17.40;59.70;;;;;;5038112;28;20238;-91
2022/07/02 01:32:23;;;;;;;10.77;3.87;;;17.40;60.40;;;;;;5038529;28;20829;-92
2022/07/02 01:34:52;;;;;;;12.70;4.60;;;17.40;59.80;;;;;;5042332;28;20216;-91
2022/07/02 01:37:23;;;;;;;12.40;4.13;;;17.40;59.80;;;;;;5030902;28;20281;-92
2022/07/02 01:39:50;;;;;;;10.93;3.97;;;17.40;59.80;;;;;;5046319;28;20230;-92
2022/07/02 01:42:17;;;;;;;10.23;4.13;;;17.40;59.70;;;;;;5040494;28;20196;-92
2022/07/02 01:44:47;;;;;;;13.57;4.70;;;17.30;59.70;;;;;;5047623;28;20231;-92
2022/07/02 01:47:18;;;;;;;11.20;3.70;;;17.30;59.90;;;;;;5047740;28;20208;-91
2022/07/02 01:49:45;;;;;;;11.67;4.23;;;17.30;59.90;;;;;;5047411;28;20201;-91
2022/07/02 01:52:14;;;;;;;10.37;3.23;;;17.30;59.80;;;;;;5032953;28;20286;-92
2022/07/02 01:54:43;;;;;;;9.07;3.43;;;17.20;59.80;;;;;;5043922;28;20850;-92
2022/07/02 01:57:14;;;;;;;10.90;3.97;;;17.20;59.90;;;;;;5041163;28;20552;-91
2022/07/02 01:59:41;;;;;;;12.50;4.63;;;17.20;60.90;;;;;;5041268;28;20403;-92
2022/07/02 02:02:09;;;;;;;9.17;3.57;;;17.20;59.90;;;;;;5045916;28;20268;-90
2022/07/02 02:04:38;;;;;;;9.70;3.70;;;17.10;60.00;;;;;;5046404;28;20622;-92
2022/07/02 02:07:05;;;;;;;10.30;4.07;;;17.10;60.20;;;;;;5046386;28;20212;-90
2022/07/02 02:09:33;;;;;;;7.90;2.93;;;17.10;60.20;;;;;;5047385;28;20278;-91
2022/07/02 02:12:02;;;;;;;12.87;4.47;;;17.10;60.30;;;;;;5047379;28;20203;-90
2022/07/02 02:14:29;;;;;;;14.50;4.33;;;17.00;60.40;;;;;;5049467;28;20557;-91
2022/07/02 02:16:59;;;;;;;12.20;4.03;;;17.00;60.50;;;;;;5048072;28;20204;-90
2022/07/02 02:19:26;;;;;;;21.70;6.73;;;16.90;60.80;;;;;;5048240;28;20241;-91
2022/07/02 02:21:53;;;;;;;12.70;4.27;;;16.90;60.70;;;;;;5050587;28;20204;-91
2022/07/02 02:24:20;;;;;;;12.60;4.77;;;16.90;60.80;;;;;;5044853;28;20278;-91
2022/07/02 02:26:47;;;;;;;9.57;3.37;;;16.90;60.80;;;;;;5048012;28;20215;-90
2022/07/02 02:29:16;;;;;;;9.63;4.13;;;16.90;60.80;;;;;;5050066;28;20250;-90
2022/07/02 02:31:43;;;;;;;16.83;5.70;;;16.90;61.30;;;;;;5049330;28;20211;-91
2022/07/02 02:34:10;;;;;;;12.43;5.00;;;16.80;61.20;;;;;;5040504;28;20219;-91
2022/07/02 02:36:38;;;;;;;14.70;4.60;;;16.80;61.30;;;;;;5035421;28;20201;-90
2022/07/02 02:39:05;;;;;;;11.10;4.33;;;16.80;61.60;;;;;;5039594;28;20264;-90
2022/07/02 02:41:39;;;;;;;14.67;5.10;;;16.80;61.70;;;;;;5051121;28;20273;-92
2022/07/02 02:44:07;;;;;;;10.93;4.43;;;16.80;61.80;;;;;;5042309;28;20362;-91
2022/07/02 02:46:35;;;;;;;9.10;3.50;;;16.80;62.00;;;;;;5050257;28;20319;-91
2022/07/02 02:49:02;;;;;;;11.30;4.13;;;16.70;62.00;;;;;;5050305;28;20217;-91
2022/07/02 02:51:32;;;;;;;16.17;5.60;;;16.70;61.80;;;;;;5030436;28;20200;-91
2022/07/02 02:53:59;;;;;;;11.53;4.27;;;16.70;62.00;;;;;;5047095;28;20196;-91
2022/07/02 02:56:26;;;;;;;17.47;5.47;;;16.70;62.10;;;;;;5048115;28;20643;-91
2022/07/02 02:58:55;;;;;;;10.63;3.83;;;16.70;62.20;;;;;;5045272;28;20226;-91
2022/07/02 03:01:22;;;;;;;8.77;3.07;;;16.70;62.20;;;;;;5052874;28;20204;-91
2022/07/02 03:03:51;;;;;;;13.73;4.93;;;16.60;62.10;;;;;;5050107;28;20200;-91
2022/07/02 03:06:20;;;;;;;15.37;5.30;;;16.60;62.10;;;;;;5044233;28;20234;-91
2022/07/02 03:08:48;;;;;;;11.93;4.50;;;16.60;62.40;;;;;;5043530;28;20207;-91
2022/07/02 03:11:18;;;;;;;18.40;5.93;;;16.60;62.10;;;;;;5043587;28;20227;-91
2022/07/02 03:13:45;;;;;;;10.37;4.07;;;16.50;62.00;;;;;;5048466;28;20212;-92
2022/07/02 03:16:12;;;;;;;14.77;5.17;;;16.50;62.00;;;;;;5035373;28;20198;-92
2022/07/02 03:18:39;;;;;;;14.57;4.87;;;16.50;62.20;;;;;;5043175;28;20736;-91
2022/07/02 03:21:10;;;;;;;8.97;3.80;;;16.50;62.50;;;;;;5052089;28;20212;-91
2022/07/02 03:23:37;;;;;;;19.07;6.27;;;16.50;62.70;;;;;;5049912;28;20220;-91
2022/07/02 03:26:05;;;;;;;10.13;3.97;;;16.50;62.70;;;;;;5049115;28;20253;-91
2022/07/02 03:28:34;;;;;;;16.37;6.00;;;16.40;62.50;;;;;;5036607;28;20734;-91
2022/07/02 03:31:01;;;;;;;15.40;5.50;;;16.40;62.60;;;;;;5049747;28;20239;-92
2022/07/02 03:33:28;;;;;;;6.07;3.03;;;16.40;62.50;;;;;;5049604;28;20271;-91
2022/07/02 03:35:56;;;;;;;8.07;3.37;;;16.40;62.50;;;;;;5048753;28;20211;-90
2022/07/02 03:38:25;;;;;;;15.27;4.63;;;16.40;62.70;;;;;;5048926;28;20333;-91
2022/07/02 03:40:53;;;;;;;13.70;4.87;;;16.40;62.80;;;;;;5049451;28;20598;-91
2022/07/02 03:43:21;;;;;;;10.57;3.67;;;16.40;62.70;;;;;;5050163;28;20207;-90
2022/07/02 03:45:48;;;;;;;14.53;5.37;;;16.30;62.90;;;;;;5048186;28;20211;-91
2022/07/02 03:48:18;;;;;;;9.60;3.80;;;16.30;63.10;;;;;;5049269;28;20267;-91
2022/07/02 03:50:46;;;;;;;7.47;3.47;;;16.30;63.40;;;;;;5050227;28;20306;-91
2022/07/02 03:53:14;;;;;;;7.10;3.37;;;16.30;63.40;;;;;;5047540;28;20212;-90
2022/07/02 03:55:44;;;;;;;12.63;4.33;;;16.30;63.50;;;;;;5044963;28;20238;-90
2022/07/02 03:58:11;;;;;;;13.83;4.77;;;16.30;63.60;;;;;;5048274;28;20295;-90
2022/07/02 04:00:38;;;;;;;17.13;5.47;;;16.30;63.50;;;;;;5044223;28;20206;-90
2022/07/02 04:03:05;;;;;;;10.47;4.10;;;16.20;63.60;;;;;;5050379;28;20201;-90
2022/07/02 04:05:32;;;;;;;11.53;4.10;;;16.30;63.50;;;;;;5052212;28;20759;-91
2022/07/02 04:07:59;;;;;;;12.17;4.07;;;16.20;63.50;;;;;;5049824;28;20222;-91
2022/07/02 04:10:26;;;;;;;13.20;5.00;;;16.20;63.60;;;;;;5047798;28;20292;-92
2022/07/02 04:12:55;;;;;;;12.27;4.90;;;16.20;63.70;;;;;;5047610;28;20203;-92
2022/07/02 04:15:22;;;;;;;14.40;5.17;;;16.20;63.90;;;;;;5050041;28;20212;-92
2022/07/02 04:18:20;;;;;;;12.53;4.20;;;16.20;63.80;;;;;;5049901;28;20841;-93
2022/07/02 04:20:47;;;;;;;10.27;3.97;;;16.20;64.50;;;;;;5051873;28;20210;-92
2022/07/02 04:23:15;;;;;;;11.30;4.10;;;16.20;64.60;;;;;;5048073;28;20248;-91
2022/07/02 04:25:49;;;;;;;12.80;4.07;;;16.20;64.00;;;;;;5049788;28;20216;-92
2022/07/02 04:28:19;;;;;;;11.53;4.57;;;16.20;64.60;;;;;;5049859;28;20292;-92
2022/07/02 04:30:46;;;;;;;12.97;4.50;;;16.20;64.50;;;;;;5049157;28;20250;-91
2022/07/02 04:33:34;;;;;;;13.13;4.73;;;16.20;64.40;;;;;;5048306;28;20231;-91
2022/07/02 04:36:01;;;;;;;12.57;4.63;;;16.20;64.80;;;;;;5049776;28;20204;-92
2022/07/02 04:38:28;;;;;;;9.60;4.03;;;16.20;64.50;;;;;;5050245;28;20253;-90
2022/07/02 04:41:12;;;;;;;12.93;4.33;;;16.20;64.50;;;;;;5051043;28;20325;-91
2022/07/02 04:43:42;;;;;;;18.10;6.07;;;16.30;65.50;;;;;;5047304;28;20211;-91
2022/07/02 04:46:24;;;;;;;12.07;4.63;;;16.20;64.90;;;;;;5049483;28;21109;-91
2022/07/02 04:49:28;;;;;;;11.93;4.37;;;16.30;65.50;;;;;;5050356;28;20581;-91
2022/07/02 04:51:56;;;;;;;10.20;3.97;;;16.20;65.40;;;;;;5050722;28;20212;-90
2022/07/02 04:54:23;;;;;;;10.10;3.83;;;16.30;64.80;;;;;;5031179;28;20220;-91
2022/07/02 04:56:51;;;;;;;10.10;3.97;;;16.30;64.90;;;;;;5049046;28;20713;-90
2022/07/02 04:59:20;;;;;;;14.63;5.03;;;16.30;65.20;;;;;;5046662;28;20283;-90
2022/07/02 05:01:48;;;;;;;10.63;4.50;;;16.30;65.30;;;;;;5045332;28;20290;-92
2022/07/02 05:04:29;;;;;;;21.27;6.60;;;16.40;65.30;;;;;;5046263;28;20278;-90
2022/07/02 05:06:57;;;;;;;10.90;3.63;;;16.40;66.00;;;;;;5028462;28;20298;-91
2022/07/02 05:09:24;;;;;;;12.97;4.33;;;16.40;65.50;;;;;;5045692;28;20208;-91
2022/07/02 05:11:51;;;;;;;10.33;3.47;;;16.40;65.60;;;;;;5047259;28;20299;-90
2022/07/02 05:14:19;;;;;;;17.57;5.60;;;16.40;65.70;;;;;;5045884;28;20300;-91
2022/07/02 05:16:47;;;;;;;16.00;4.70;;;16.50;65.90;;;;;;5046121;28;20297;-91
2022/07/02 05:19:14;;;;;;;12.03;4.27;;;16.50;66.00;;;;;;5042671;28;21030;-91
2022/07/02 05:21:42;;;;;;;13.20;4.87;;;16.50;66.00;;;;;;5047011;28;20246;-91
2022/07/02 05:24:09;;;;;;;8.57;3.57;;;16.60;66.20;;;;;;5047160;28;20232;-90
2022/07/02 05:26:36;;;;;;;9.50;3.60;;;16.60;66.30;;;;;;5046704;28;20206;-91
2022/07/02 05:29:22;;;;;;;11.00;4.30;;;16.70;66.50;;;;;;5047503;28;20227;-90
2022/07/02 05:32:09;;;;;;;14.07;5.27;;;16.70;67.20;;;;;;5031074;28;20639;-89
2022/07/02 05:35:09;;;;;;;5.87;2.57;;;16.70;67.60;;;;;;5041796;28;20206;-90
2022/07/02 05:37:39;;;;;;;11.63;4.00;;;16.80;67.80;;;;;;4985672;28;20693;-91
2022/07/02 05:40:07;;;;;;;11.23;4.10;;;16.90;67.10;;;;;;4994525;28;20265;-91
2022/07/02 05:42:36;;;;;;;6.23;2.73;;;16.90;67.00;;;;;;5030375;28;20209;-92
2022/07/02 05:45:14;;;;;;;11.90;4.53;;;16.90;67.20;;;;;;5038719;28;20220;-93
2022/07/02 05:47:42;;;;;;;12.97;5.13;;;17.00;67.30;;;;;;5049854;28;20285;-88
2022/07/02 05:50:10;;;;;;;12.43;4.43;;;17.00;66.80;;;;;;5048527;28;20649;-91
2022/07/02 05:52:37;;;;;;;15.87;5.07;;;17.10;66.70;;;;;;5053434;28;20236;-91
2022/07/02 05:55:05;;;;;;;12.33;4.87;;;17.20;66.70;;;;;;5052355;28;20212;-89
2022/07/02 05:57:32;;;;;;;14.97;4.90;;;17.20;66.70;;;;;;5052430;28;20251;-91
2022/07/02 06:00:08;;;;;;;8.70;3.43;;;17.30;66.70;;;;;;5054621;28;20595;-91
2022/07/02 06:02:35;;;;;;;8.90;3.30;;;17.40;66.80;;;;;;5053123;28;21001;-91
2022/07/02 06:07:38;;;;;;;9.67;3.43;;;17.50;66.70;;;;;;5049572;28;20208;-92
2022/07/02 06:07:52;;;;;;;11.30;3.57;;;17.50;66.90;;;;;;5053107;28;20209;-90
2022/07/02 06:10:31;;;;;;;18.40;6.50;;;17.60;66.50;;;;;;5052432;28;20673;-89
2022/07/02 06:12:58;;;;;;;10.67;3.97;;;17.70;66.90;;;;;;5051320;28;20208;-90
2022/07/02 06:15:25;;;;;;;11.63;4.37;;;17.80;66.40;;;;;;5051841;28;20212;-90
2022/07/02 06:18:01;;;;;;;12.53;4.60;;;17.90;66.30;;;;;;5052354;28;21434;-92
2022/07/02 06:20:48;;;;;;;13.50;3.97;;;18.00;66.90;;;;;;5047926;28;20683;-93
2022/07/02 06:23:19;;;;;;;10.73;3.70;;;18.10;67.40;;;;;;5043034;28;20220;-91
2022/07/02 06:25:47;;;;;;;15.73;5.53;;;18.20;66.90;;;;;;5051686;28;20593;-90
2022/07/02 06:28:15;;;;;;;14.70;4.57;;;18.30;66.70;;;;;;5055292;28;20227;-90
2022/07/02 06:30:42;;;;;;;12.90;4.93;;;18.40;66.50;;;;;;5053001;28;20245;-90
2022/07/02 06:33:10;;;;;;;10.07;3.50;;;18.50;66.50;;;;;;5053885;28;20226;-92
2022/07/02 06:35:37;;;;;;;11.70;4.07;;;18.60;66.30;;;;;;5053557;28;20221;-90
2022/07/02 06:40:58;;;;;;;10.43;4.27;;;18.70;65.50;;;;;;5051788;28;20235;-91
2022/07/02 06:43:26;;;;;;;18.50;6.60;;;18.80;66.30;;;;;;5048327;28;20685;-91
2022/07/02 06:46:22;;;;;;;11.90;4.30;;;18.90;65.60;;;;;;5054364;28;20545;-89
2022/07/02 06:48:49;;;;;;;10.40;4.40;;;19.00;66.10;;;;;;5008194;28;20239;-91
2022/07/02 06:51:16;;;;;;;13.63;5.17;;;19.00;65.50;;;;;;5046497;28;20712;-90
2022/07/02 06:53:44;;;;;;;8.83;3.13;;;19.20;65.60;;;;;;5053195;28;20207;-90
2022/07/02 06:56:14;;;;;;;8.07;3.03;;;19.20;65.40;;;;;;5051045;28;20636;-90
2022/07/02 06:58:41;;;;;;;7.83;3.50;;;19.30;65.00;;;;;;5052789;28;20554;-90
2022/07/02 07:01:13;;;;;;;16.17;5.43;;;19.30;64.40;;;;;;5048117;28;20234;-89
2022/07/02 07:06:22;;;;;;;8.23;3.27;;;19.50;64.30;;;;;;5033954;28;20215;-88
2022/07/02 07:08:52;;;;;;;9.60;4.27;;;19.60;64.40;;;;;;5049623;28;20767;-90
2022/07/02 07:11:22;;;;;;;8.10;3.53;;;19.60;64.00;;;;;;5051459;28;20466;-90
2022/07/02 07:13:49;;;;;;;8.70;3.63;;;19.70;64.30;;;;;;5050349;28;20354;-90
2022/07/02 07:16:17;;;;;;;7.73;3.23;;;19.70;64.30;;;;;;5050982;28;20225;-89
2022/07/02 07:18:45;;;;;;;6.67;3.03;;;19.80;64.30;;;;;;5039356;28;20306;-90
2022/07/02 07:21:12;;;;;;;12.00;4.00;;;19.90;64.40;;;;;;5042303;28;20634;-88
2022/07/02 07:23:42;;;;;;;12.63;5.27;;;19.90;64.60;;;;;;5048314;28;20277;-90
2022/07/02 07:26:10;;;;;;;9.70;3.97;;;20.00;64.70;;;;;;5049668;28;20199;-90
2022/07/02 07:28:37;;;;;;;8.80;3.63;;;20.10;64.80;;;;;;5051045;28;20274;-92
2022/07/02 07:31:04;;;;;;;12.10;4.20;;;20.10;64.30;;;;;;5045538;28;20265;-90
2022/07/02 07:33:31;;;;;;;9.37;3.63;;;20.20;63.80;;;;;;5048902;28;20223;-88
2022/07/02 07:35:59;;;;;;;9.33;3.47;;;20.30;63.50;;;;;;5049298;28;20227;-89
2022/07/02 07:38:26;;;;;;;15.83;5.17;;;20.30;63.40;;;;;;5048870;28;20289;-90
2022/07/02 07:40:53;;;;;;;8.90;3.40;;;20.40;63.20;;;;;;5048714;28;20353;-88
2022/07/02 07:43:22;;;;;;;8.93;3.53;;;20.40;62.60;;;;;;5048571;28;20216;-89
2022/07/02 07:45:49;;;;;;;9.73;3.07;;;20.50;62.30;;;;;;5049747;28;20238;-90
2022/07/02 07:48:16;;;;;;;8.77;3.07;;;20.60;62.10;;;;;;5048451;28;20196;-89
2022/07/02 07:50:43;;;;;;;8.07;3.23;;;20.60;62.30;;;;;;5038867;28;20572;-91
2022/07/02 07:53:10;;;;;;;17.73;5.90;;;20.70;62.20;;;;;;5034080;28;20208;-90
2022/07/02 07:55:37;;;;;;;7.87;2.73;;;20.80;61.70;;;;;;5047661;28;20203;-89
2022/07/02 07:58:05;;;;;;;6.97;2.17;;;20.80;60.80;;;;;;5048631;28;20209;-89
2022/07/02 08:00:33;;;;;;;13.53;4.57;;;20.90;61.10;;;;;;5027768;28;20232;-90
2022/07/02 08:03:00;;;;;;;13.23;4.90;;;21.00;60.70;;;;;;5045806;28;20209;-90
2022/07/02 08:05:28;;;;;;;8.37;2.90;;;21.10;60.00;;;;;;5047330;28;20207;-89
2022/07/02 08:07:55;;;;;;;6.73;2.87;;;21.10;59.50;;;;;;5049364;28;20200;-88
2022/07/02 08:10:22;;;;;;;12.63;3.60;;;21.20;59.50;;;;;;5047688;28;20192;-89
2022/07/02 08:12:49;;;;;;;8.27;2.77;;;21.30;59.70;;;;;;5049244;28;20995;-89
2022/07/02 08:15:16;;;;;;;8.63;3.53;;;21.30;59.70;;;;;;5048199;28;20228;-88
2022/07/02 08:17:46;;;;;;;9.57;3.63;;;21.40;59.70;;;;;;5045197;28;20296;-91
2022/07/02 08:20:13;;;;;;;9.27;3.63;;;21.40;59.40;;;;;;5029732;28;20306;-91
2022/07/02 08:22:40;;;;;;;8.27;3.17;;;21.50;59.80;;;;;;5046258;28;20224;-90
2022/07/02 08:25:08;;;;;;;10.03;3.67;;;21.50;59.60;;;;;;5047680;28;20297;-90
2022/07/02 08:27:35;;;;;;;11.90;4.27;;;21.60;59.60;;;;;;5047299;28;20295;-90
2022/07/02 08:30:02;;;;;;;8.97;3.20;;;21.70;59.80;;;;;;5047789;28;20224;-88
2022/07/02 08:32:29;;;;;;;8.50;3.23;;;21.80;59.70;;;;;;5045584;28;20209;-89
2022/07/02 08:34:58;;;;;;;8.40;3.40;;;21.90;59.60;;;;;;5047892;28;20630;-89
2022/07/02 08:37:26;;;;;;;9.90;3.27;;;22.00;59.70;;;;;;5045677;28;20291;-92
2022/07/02 08:39:53;;;;;;;8.10;3.30;;;22.10;59.00;;;;;;5046917;28;20644;-90
2022/07/02 08:42:24;;;;;;;7.77;3.13;;;22.30;59.40;;;;;;5047440;28;20188;-89
2022/07/02 08:44:53;;;;;;;12.97;4.13;;;22.40;58.90;;;;;;5047287;28;20208;-89
2022/07/02 08:47:21;;;;;;;6.90;3.60;;;22.50;59.00;;;;;;5046741;28;20214;-89
2022/07/02 08:49:49;;;;;;;9.70;3.53;;;22.70;58.90;;;;;;5047255;28;20188;-89
2022/07/02 08:52:19;;;;;;;10.10;3.80;;;22.80;58.70;;;;;;5046181;28;20196;-91
2022/07/02 08:54:47;;;;;;;7.83;3.17;;;23.00;58.20;;;;;;5047673;28;20208;-89
2022/07/02 08:57:16;;;;;;;6.83;2.97;;;23.20;59.00;;;;;;5046289;28;20288;-92
2022/07/02 09:02:27;;;;;;;7.23;3.23;;;23.50;58.50;;;;;;5042035;28;20225;-90
2022/07/02 09:04:57;;;;;;;8.17;3.13;;;23.70;58.10;;;;;;5050013;28;20673;-90
2022/07/02 09:07:29;;;;;;;10.33;3.87;;;23.90;57.70;;;;;;5047901;28;20206;-90
2022/07/02 09:09:58;;;;;;;5.00;2.30;;;24.10;57.90;;;;;;5050621;28;20228;-91
2022/07/02 09:12:27;;;;;;;7.40;3.40;;;24.20;56.80;;;;;;5047128;28;20227;-90
2022/07/02 09:14:55;;;;;;;7.87;3.30;;;24.40;56.40;;;;;;5046917;28;20227;-90
2022/07/02 09:17:22;;;;;;;4.07;2.13;;;24.50;55.90;;;;;;5047475;28;20249;-91
2022/07/02 09:19:50;;;;;;;11.17;3.97;;;24.70;56.40;;;;;;5047151;28;20243;-90
2022/07/02 09:22:17;;;;;;;9.87;3.07;;;24.80;55.70;;;;;;5046328;28;20672;-90
2022/07/02 09:24:48;;;;;;;8.57;3.10;;;25.00;55.60;;;;;;5048470;28;20204;-90
2022/07/02 09:27:24;;;;;;;6.03;2.83;;;25.10;54.60;;;;;;5049512;28;20259;-93
2022/07/02 09:29:53;;;;;;;5.33;2.50;;;25.30;54.80;;;;;;5050126;28;20211;-91
2022/07/02 09:32:21;;;;;;;4.20;2.07;;;25.40;55.20;;;;;;5049601;28;20223;-90
2022/07/02 09:34:51;;;;;;;9.97;3.97;;;25.50;54.60;;;;;;5046447;28;20304;-90
2022/07/02 09:37:21;;;;;;;10.40;3.73;;;25.60;54.10;;;;;;5040081;28;20199;-89
2022/07/02 09:39:52;;;;;;;9.13;3.87;;;25.80;54.40;;;;;;5030302;28;20204;-91
2022/07/02 09:42:26;;;;;;;6.63;2.53;;;25.90;53.80;;;;;;5030622;28;20743;-89
2022/07/02 09:44:53;;;;;;;7.03;2.83;;;26.00;53.10;;;;;;5034407;28;20199;-90
2022/07/02 09:47:31;;;;;;;5.87;2.57;;;26.10;53.20;;;;;;5032600;28;20211;-89
2022/07/02 09:50:02;;;;;;;8.30;3.43;;;26.20;52.60;;;;;;5031199;28;20204;-90
2022/07/02 09:52:39;;;;;;;13.53;4.97;;;26.40;52.60;;;;;;5044827;28;20211;-90
2022/07/02 09:55:19;;;;;;;7.23;3.03;;;26.50;52.40;;;;;;5032679;28;20247;-91
2022/07/02 09:57:50;;;;;;;7.00;3.17;;;26.60;51.70;;;;;;5028401;28;20675;-90
2022/07/02 10:00:36;;;;;;;8.57;3.33;;;26.70;51.80;;;;;;5030700;28;20312;-88
2022/07/02 10:03:04;;;;;;;10.03;3.40;;;26.80;50.40;;;;;;5051364;28;20204;-89
2022/07/02 10:05:42;;;;;;;8.17;3.43;;;26.80;50.80;;;;;;5050156;28;20300;-90
2022/07/02 10:08:09;;;;;;;6.57;2.87;;;26.90;49.60;;;;;;5045187;28;20309;-90
2022/07/02 10:10:39;;;;;;;5.87;2.37;;;26.90;50.00;;;;;;5046119;28;20197;-90
2022/07/02 10:13:11;;;;;;;7.33;2.97;;;26.90;50.30;;;;;;5047921;28;20212;-92
2022/07/02 10:15:51;;;;;;;6.10;2.70;;;26.90;49.20;;;;;;5047393;28;20291;-89
2022/07/02 10:18:20;;;;;;;6.27;2.60;;;26.90;49.20;;;;;;5047692;28;20219;-90
2022/07/02 10:21:14;;;;;;;6.73;3.07;;;26.90;48.90;;;;;;5048224;28;20223;-91
2022/07/02 10:23:44;;;;;;;8.00;3.33;;;26.80;47.80;;;;;;5046976;28;20317;-89
2022/07/02 10:26:18;;;;;;;5.97;2.73;;;26.80;48.40;;;;;;5046917;28;20241;-91
2022/07/02 10:28:45;;;;;;;5.63;2.33;;;26.80;48.10;;;;;;5044915;28;20244;-92
2022/07/02 10:31:18;;;;;;;6.67;3.13;;;26.80;48.10;;;;;;5046768;28;20283;-90
2022/07/02 10:33:51;;;;;;;5.73;2.63;;;26.80;47.90;;;;;;5047869;28;20613;-91
2022/07/02 10:36:19;;;;;;;6.67;2.90;;;26.80;47.60;;;;;;5049341;28;20254;-90
2022/07/02 10:38:57;;;;;;;10.13;2.90;;;26.80;48.10;;;;;;5049567;28;20689;-92
2022/07/02 10:41:31;;;;;;;5.33;2.43;;;26.80;47.50;;;;;;5050132;28;20220;-90
2022/07/02 10:43:58;;;;;;;8.47;3.43;;;26.90;46.30;;;;;;5050590;28;20200;-90
2022/07/02 10:46:29;;;;;;;8.70;3.67;;;26.80;47.90;;;;;;5051713;28;20208;-90
2022/07/02 10:48:59;;;;;;;6.53;2.90;;;26.90;47.30;;;;;;5050502;28;20290;-90
2022/07/02 10:51:28;;;;;;;5.43;2.00;;;26.90;47.40;;;;;;5051156;28;20239;-92
2022/07/02 10:54:02;;;;;;;7.00;3.13;;;26.90;46.50;;;;;;5048490;28;20212;-89
2022/07/02 10:56:42;;;;;;;5.07;2.20;;;26.90;45.30;;;;;;5048937;28;20221;-90
2022/07/02 10:59:23;;;;;;;6.00;2.63;;;26.90;46.30;;;;;;5049062;28;20680;-90
2022/07/02 11:02:01;;;;;;;8.17;3.13;;;27.00;45.80;;;;;;5049775;28;20776;-89
2022/07/02 11:04:29;;;;;;;4.03;1.97;;;27.00;45.90;;;;;;5050603;28;20211;-90
2022/07/02 11:07:07;;;;;;;7.37;3.23;;;27.00;45.90;;;;;;5050186;28;20206;-91
2022/07/02 11:09:55;;;;;;;4.73;2.13;;;27.10;45.70;;;;;;5050522;28;20208;-92
2022/07/02 11:12:28;;;;;;;5.80;2.20;;;27.20;45.30;;;;;;5047012;28;20204;-93
2022/07/02 11:14:56;;;;;;;8.33;3.30;;;27.20;45.30;;;;;;5049572;28;20282;-92
2022/07/02 11:17:24;;;;;;;6.73;2.83;;;27.30;45.90;;;;;;5050011;28;20309;-91
2022/07/02 11:19:55;;;;;;;5.37;2.57;;;27.30;46.00;;;;;;5050730;28;20212;-91
2022/07/02 11:22:32;;;;;;;4.93;2.27;;;27.30;45.20;;;;;;5050219;28;20322;-91
2022/07/02 11:24:59;;;;;;;7.33;3.17;;;27.30;45.20;;;;;;5050635;28;20667;-94
2022/07/02 11:27:28;;;;;;;14.00;5.63;;;27.40;46.00;;;;;;5050602;28;20269;-91
2022/07/02 11:29:55;;;;;;;9.70;2.97;;;27.40;45.70;;;;;;5047932;28;20208;-91
2022/07/02 11:32:22;;;;;;;9.80;4.17;;;27.50;45.80;;;;;;5047283;28;20683;-91
2022/07/02 11:34:58;;;;;;;6.23;2.57;;;27.50;45.70;;;;;;5047844;28;20253;-90
2022/07/02 11:37:29;;;;;;;7.50;3.37;;;27.50;46.10;;;;;;5050101;28;20278;-90
2022/07/02 11:39:56;;;;;;;10.10;3.87;;;27.60;46.50;;;;;;5046941;28;20288;-93
2022/07/02 11:42:38;;;;;;;4.67;1.90;;;27.70;46.20;;;;;;5051114;28;20696;-90
2022/07/02 11:45:06;;;;;;;6.03;2.60;;;27.80;44.70;;;;;;5036338;28;20246;-92
2022/07/02 11:47:46;;;;;;;5.17;2.50;;;27.90;45.00;;;;;;5048518;28;20204;-89
2022/07/02 11:50:14;;;;;;;8.83;2.77;;;27.90;44.60;;;;;;5051413;28;20210;-91
2022/07/02 11:52:47;;;;;;;4.93;2.20;;;28.00;45.30;;;;;;5041926;28;20219;-89
2022/07/02 11:55:20;;;;;;;8.30;3.20;;;28.10;44.90;;;;;;5049722;28;20250;-91
2022/07/02 11:57:51;;;;;;;6.83;2.43;;;28.10;44.40;;;;;;5049911;28;20212;-93
2022/07/02 12:00:19;;;;;;;5.37;2.43;;;28.20;43.90;;;;;;5047578;28;20208;-91
2022/07/02 12:02:49;;;;;;;7.13;2.70;;;28.30;43.90;;;;;;5047507;28;20228;-91
2022/07/02 12:05:37;;;;;;;8.63;3.67;;;28.30;43.70;;;;;;5046637;28;20203;-94
2022/07/02 12:08:07;;;;;;;7.47;3.03;;;28.30;43.90;;;;;;5043933;28;20247;-91
2022/07/02 12:10:39;;;;;;;5.57;2.63;;;28.30;43.40;;;;;;5049379;28;20204;-91
2022/07/02 12:13:10;;;;;;;7.17;3.30;;;28.30;42.60;;;;;;5049611;28;20291;-91
2022/07/02 12:15:43;;;;;;;5.97;2.67;;;28.30;42.20;;;;;;5049242;28;20691;-92
2022/07/02 12:18:21;;;;;;;7.50;3.03;;;28.30;42.30;;;;;;5049459;28;20220;-90
2022/07/02 12:20:56;;;;;;;6.17;2.77;;;28.30;41.90;;;;;;5047353;28;20251;-92
2022/07/02 12:23:23;;;;;;;7.33;3.00;;;28.30;42.20;;;;;;5049071;28;20568;-92
2022/07/02 12:25:50;;;;;;;7.80;3.10;;;28.20;42.30;;;;;;5049289;28;20264;-90
2022/07/02 12:31:04;;;;;;;10.43;4.43;;;28.20;43.30;;;;;;5052783;28;20211;-92
2022/07/02 12:33:32;;;;;;;9.87;4.03;;;28.20;42.70;;;;;;5045573;28;20224;-89
2022/07/02 12:36:01;;;;;;;5.67;2.67;;;28.20;42.80;;;;;;5033646;28;20231;-91
2022/07/02 12:38:28;;;;;;;9.03;3.67;;;28.20;42.40;;;;;;5028862;28;20740;-91
2022/07/02 12:41:07;;;;;;;8.00;3.23;;;28.10;42.80;;;;;;5029012;28;20204;-91
2022/07/02 12:43:36;;;;;;;8.90;2.93;;;28.20;42.20;;;;;;5028796;28;20266;-91
2022/07/02 12:46:07;;;;;;;5.77;2.63;;;28.20;42.60;;;;;;5028117;28;20200;-91
2022/07/02 12:48:43;;;;;;;7.33;2.77;;;28.20;42.60;;;;;;5038519;28;20756;-92
2022/07/02 12:51:11;;;;;;;6.27;2.87;;;28.10;42.50;;;;;;5048151;28;20311;-91
2022/07/02 12:53:38;;;;;;;7.27;3.33;;;28.20;42.80;;;;;;5049779;28;20210;-91
2022/07/02 12:56:07;;;;;;;6.10;2.63;;;28.20;42.70;;;;;;5048058;28;20200;-93
2022/07/02 12:58:37;;;;;;;5.63;2.27;;;28.20;42.10;;;;;;5053347;28;20204;-92
2022/07/02 13:01:05;;;;;;;8.67;3.57;;;28.20;42.50;;;;;;5049621;28;20211;-92
2022/07/02 13:03:36;;;;;;;5.33;2.47;;;28.20;42.30;;;;;;5047348;28;20235;-92
2022/07/02 13:06:04;;;;;;;5.20;2.13;;;28.10;42.30;;;;;;5049171;28;20196;-91
2022/07/02 13:08:31;;;;;;;8.90;3.80;;;28.10;42.60;;;;;;5051860;28;20639;-93
2022/07/02 13:10:58;;;;;;;6.60;3.10;;;28.00;42.70;;;;;;5053617;28;20658;-91